sensor_id;sensor_type;location;lat;lon;timestamp;P1;durP1;ratioP1;P2;durP2;ratioP2
77042;SDS011;65975;53.936;27.540;2023-01-28T00:01:06;37.97;;;15.77;;
77042;SDS011;65975;53.936;27.540;2023-01-28T00:03:36;36.58;;;16.95;;
77042;SDS011;65975;53.936;27.540;2023-01-28T00:06:03;48.33;;;17.83;;
77042;SDS011;65975;53.936;27.540;2023-01-28T00:08:30;38.75;;;16.65;;
77042;SDS011;65975;53.936;27.540;2023-01-28T00:11:02;35.33;;;15.73;;
77042;SDS011;65975;53.936;27.540;2023-01-28T00:13:29;34.85;;;17.27;;
77042;SDS011;65975;53.936;27.540;2023-01-28T00:15:56;39.67;;;15.45;;
77042;SDS011;65975;53.936;27.540;2023-01-28T00:18:23;37.17;;;17.08;;
77042;SDS011;65975;53.936;27.540;2023-01-28T00:21:05;34.90;;;16.17;;
77042;SDS011;65975;53.936;27.540;2023-01-28T00:23:32;38.13;;;15.65;;
77042;SDS011;65975;53.936;27.540;2023-01-28T00:26:03;41.63;;;15.60;;
77042;SDS011;65975;53.936;27.540;2023-01-28T00:28:31;45.70;;;19.42;;
77042;SDS011;65975;53.936;27.540;2023-01-28T00:30:56;42.10;;;18.73;;
77042;SDS011;65975;53.936;27.540;2023-01-28T00:33:22;44.20;;;17.77;;
77042;SDS011;65975;53.936;27.540;2023-01-28T00:35:56;36.88;;;16.13;;
77042;SDS011;65975;53.936;27.540;2023-01-28T00:38:22;46.38;;;18.33;;
77042;SDS011;65975;53.936;27.540;2023-01-28T00:40:47;49.10;;;20.13;;
77042;SDS011;65975;53.936;27.540;2023-01-28T00:43:13;39.72;;;17.30;;
77042;SDS011;65975;53.936;27.540;2023-01-28T00:45:39;46.97;;;18.80;;
77042;SDS011;65975;53.936;27.540;2023-01-28T00:48:05;34.33;;;14.50;;
77042;SDS011;65975;53.936;27.540;2023-01-28T00:50:30;41.50;;;16.98;;
77042;SDS011;65975;53.936;27.540;2023-01-28T00:52:56;37.67;;;15.75;;
77042;SDS011;65975;53.936;27.540;2023-01-28T00:55:21;50.03;;;19.73;;
77042;SDS011;65975;53.936;27.540;2023-01-28T00:57:47;39.00;;;16.38;;
77042;SDS011;65975;53.936;27.540;2023-01-28T01:00:12;36.47;;;17.17;;
77042;SDS011;65975;53.936;27.540;2023-01-28T01:02:38;43.17;;;16.27;;
77042;SDS011;65975;53.936;27.540;2023-01-28T01:05:04;46.35;;;20.40;;
77042;SDS011;65975;53.936;27.540;2023-01-28T01:07:30;41.42;;;17.55;;
77042;SDS011;65975;53.936;27.540;2023-01-28T01:10:17;42.83;;;18.40;;
77042;SDS011;65975;53.936;27.540;2023-01-28T01:12:47;41.28;;;16.70;;
77042;SDS011;65975;53.936;27.540;2023-01-28T01:15:13;41.65;;;18.10;;
77042;SDS011;65975;53.936;27.540;2023-01-28T01:17:42;44.90;;;18.25;;
77042;SDS011;65975;53.936;27.540;2023-01-28T01:20:30;42.15;;;16.75;;
77042;SDS011;65975;53.936;27.540;2023-01-28T01:22:57;39.42;;;17.85;;
77042;SDS011;65975;53.936;27.540;2023-01-28T01:25:23;38.92;;;15.57;;
77042;SDS011;65975;53.936;27.540;2023-01-28T01:27:48;39.63;;;17.08;;
77042;SDS011;65975;53.936;27.540;2023-01-28T01:30:14;45.42;;;20.15;;
77042;SDS011;65975;53.936;27.540;2023-01-28T01:32:40;41.92;;;16.83;;
77042;SDS011;65975;53.936;27.540;2023-01-28T01:35:06;40.08;;;15.57;;
77042;SDS011;65975;53.936;27.540;2023-01-28T01:37:34;42.95;;;17.60;;
77042;SDS011;65975;53.936;27.540;2023-01-28T01:40:00;39.10;;;17.25;;
77042;SDS011;65975;53.936;27.540;2023-01-28T01:42:27;44.78;;;18.65;;
77042;SDS011;65975;53.936;27.540;2023-01-28T01:44:57;39.30;;;16.33;;
77042;SDS011;65975;53.936;27.540;2023-01-28T01:50:06;42.23;;;16.73;;
77042;SDS011;65975;53.936;27.540;2023-01-28T01:52:48;36.70;;;16.67;;
77042;SDS011;65975;53.936;27.540;2023-01-28T01:55:17;36.05;;;17.33;;
77042;SDS011;65975;53.936;27.540;2023-01-28T01:57:45;36.58;;;16.20;;
77042;SDS011;65975;53.936;27.540;2023-01-28T02:00:13;42.33;;;17.38;;
77042;SDS011;65975;53.936;27.540;2023-01-28T02:02:41;45.95;;;19.55;;
77042;SDS011;65975;53.936;27.540;2023-01-28T02:05:10;46.40;;;18.80;;
77042;SDS011;65975;53.936;27.540;2023-01-28T02:07:37;41.35;;;18.30;;
77042;SDS011;65975;53.936;27.540;2023-01-28T02:10:04;56.85;;;21.55;;
77042;SDS011;65975;53.936;27.540;2023-01-28T02:12:35;49.05;;;18.88;;
77042;SDS011;65975;53.936;27.540;2023-01-28T02:15:05;47.55;;;20.05;;
77042;SDS011;65975;53.936;27.540;2023-01-28T02:17:33;49.95;;;20.13;;
77042;SDS011;65975;53.936;27.540;2023-01-28T02:20:08;44.90;;;18.50;;
77042;SDS011;65975;53.936;27.540;2023-01-28T02:30:52;51.58;;;19.13;;
77042;SDS011;65975;53.936;27.540;2023-01-28T02:33:51;47.30;;;19.73;;
77042;SDS011;65975;53.936;27.540;2023-01-28T02:38:51;43.78;;;19.75;;
77042;SDS011;65975;53.936;27.540;2023-01-28T02:41:21;51.00;;;21.13;;
77042;SDS011;65975;53.936;27.540;2023-01-28T02:43:52;49.35;;;19.85;;
77042;SDS011;65975;53.936;27.540;2023-01-28T02:49:11;52.75;;;19.10;;
77042;SDS011;65975;53.936;27.540;2023-01-28T02:57:27;51.00;;;18.98;;
77042;SDS011;65975;53.936;27.540;2023-01-28T03:00:02;54.47;;;22.80;;
77042;SDS011;65975;53.936;27.540;2023-01-28T03:02:36;48.25;;;21.17;;
77042;SDS011;65975;53.936;27.540;2023-01-28T03:05:16;55.05;;;22.45;;
77042;SDS011;65975;53.936;27.540;2023-01-28T03:07:50;58.97;;;23.58;;
77042;SDS011;65975;53.936;27.540;2023-01-28T03:10:18;40.88;;;18.17;;
77042;SDS011;65975;53.936;27.540;2023-01-28T03:12:47;51.50;;;21.13;;
77042;SDS011;65975;53.936;27.540;2023-01-28T03:15:42;46.33;;;19.60;;
77042;SDS011;65975;53.936;27.540;2023-01-28T03:18:42;45.33;;;19.35;;
77042;SDS011;65975;53.936;27.540;2023-01-28T03:21:34;58.92;;;21.08;;
77042;SDS011;65975;53.936;27.540;2023-01-28T03:24:29;45.22;;;20.35;;
77042;SDS011;65975;53.936;27.540;2023-01-28T03:27:28;47.67;;;18.80;;
77042;SDS011;65975;53.936;27.540;2023-01-28T03:30:26;40.78;;;18.48;;
77042;SDS011;65975;53.936;27.540;2023-01-28T03:33:20;39.78;;;17.45;;
77042;SDS011;65975;53.936;27.540;2023-01-28T03:36:06;42.75;;;16.67;;
77042;SDS011;65975;53.936;27.540;2023-01-28T03:38:51;41.15;;;17.35;;
77042;SDS011;65975;53.936;27.540;2023-01-28T03:41:20;35.53;;;15.82;;
77042;SDS011;65975;53.936;27.540;2023-01-28T03:43:50;41.72;;;16.98;;
77042;SDS011;65975;53.936;27.540;2023-01-28T03:46:17;41.70;;;17.23;;
77042;SDS011;65975;53.936;27.540;2023-01-28T03:48:43;42.03;;;17.27;;
77042;SDS011;65975;53.936;27.540;2023-01-28T03:51:09;45.63;;;17.95;;
77042;SDS011;65975;53.936;27.540;2023-01-28T03:53:36;43.60;;;17.73;;
77042;SDS011;65975;53.936;27.540;2023-01-28T03:56:03;40.20;;;17.40;;
77042;SDS011;65975;53.936;27.540;2023-01-28T03:58:29;32.72;;;14.13;;
77042;SDS011;65975;53.936;27.540;2023-01-28T04:01:13;34.65;;;15.15;;
77042;SDS011;65975;53.936;27.540;2023-01-28T04:03:39;36.47;;;15.90;;
77042;SDS011;65975;53.936;27.540;2023-01-28T04:06:05;36.63;;;14.35;;
77042;SDS011;65975;53.936;27.540;2023-01-28T04:08:32;39.25;;;15.65;;
77042;SDS011;65975;53.936;27.540;2023-01-28T04:10:58;39.72;;;16.75;;
77042;SDS011;65975;53.936;27.540;2023-01-28T04:13:39;31.45;;;14.23;;
77042;SDS011;65975;53.936;27.540;2023-01-28T04:16:05;35.70;;;14.02;;
77042;SDS011;65975;53.936;27.540;2023-01-28T04:18:32;44.13;;;17.35;;
77042;SDS011;65975;53.936;27.540;2023-01-28T04:20:58;36.72;;;15.68;;
77042;SDS011;65975;53.936;27.540;2023-01-28T04:23:23;33.13;;;14.57;;
77042;SDS011;65975;53.936;27.540;2023-01-28T04:25:49;42.15;;;16.25;;
77042;SDS011;65975;53.936;27.540;2023-01-28T04:28:15;37.88;;;15.07;;
77042;SDS011;65975;53.936;27.540;2023-01-28T04:30:41;33.28;;;14.85;;
77042;SDS011;65975;53.936;27.540;2023-01-28T04:33:06;45.25;;;18.40;;
77042;SDS011;65975;53.936;27.540;2023-01-28T04:35:31;41.35;;;16.42;;
77042;SDS011;65975;53.936;27.540;2023-01-28T04:37:57;39.15;;;15.40;;
77042;SDS011;65975;53.936;27.540;2023-01-28T04:40:22;46.55;;;20.45;;
77042;SDS011;65975;53.936;27.540;2023-01-28T04:42:55;33.55;;;14.45;;
77042;SDS011;65975;53.936;27.540;2023-01-28T04:45:21;35.28;;;15.25;;
77042;SDS011;65975;53.936;27.540;2023-01-28T04:47:47;39.00;;;16.05;;
77042;SDS011;65975;53.936;27.540;2023-01-28T04:50:13;36.20;;;15.43;;
77042;SDS011;65975;53.936;27.540;2023-01-28T04:52:39;40.17;;;16.38;;
77042;SDS011;65975;53.936;27.540;2023-01-28T04:55:04;40.28;;;16.83;;
77042;SDS011;65975;53.936;27.540;2023-01-28T04:57:30;33.28;;;15.18;;
77042;SDS011;65975;53.936;27.540;2023-01-28T04:59:56;36.45;;;16.45;;
77042;SDS011;65975;53.936;27.540;2023-01-28T05:02:21;34.67;;;14.35;;
77042;SDS011;65975;53.936;27.540;2023-01-28T05:04:47;35.97;;;14.90;;
77042;SDS011;65975;53.936;27.540;2023-01-28T05:07:12;36.88;;;15.10;;
77042;SDS011;65975;53.936;27.540;2023-01-28T05:09:38;33.45;;;14.00;;
77042;SDS011;65975;53.936;27.540;2023-01-28T05:12:03;34.10;;;14.52;;
77042;SDS011;65975;53.936;27.540;2023-01-28T05:14:29;31.95;;;13.52;;
77042;SDS011;65975;53.936;27.540;2023-01-28T05:16:54;37.72;;;15.45;;
77042;SDS011;65975;53.936;27.540;2023-01-28T05:19:20;31.13;;;13.27;;
77042;SDS011;65975;53.936;27.540;2023-01-28T05:21:45;31.02;;;12.52;;
77042;SDS011;65975;53.936;27.540;2023-01-28T05:24:11;30.88;;;13.40;;
77042;SDS011;65975;53.936;27.540;2023-01-28T05:26:36;31.17;;;13.85;;
77042;SDS011;65975;53.936;27.540;2023-01-28T05:29:03;41.35;;;15.55;;
77042;SDS011;65975;53.936;27.540;2023-01-28T05:31:28;35.35;;;14.13;;
77042;SDS011;65975;53.936;27.540;2023-01-28T05:33:54;34.13;;;14.55;;
77042;SDS011;65975;53.936;27.540;2023-01-28T05:36:20;34.83;;;13.52;;
77042;SDS011;65975;53.936;27.540;2023-01-28T05:38:45;32.17;;;13.02;;
77042;SDS011;65975;53.936;27.540;2023-01-28T05:41:11;31.63;;;13.23;;
77042;SDS011;65975;53.936;27.540;2023-01-28T05:43:36;36.35;;;15.25;;
77042;SDS011;65975;53.936;27.540;2023-01-28T05:46:02;37.72;;;14.77;;
77042;SDS011;65975;53.936;27.540;2023-01-28T05:48:27;38.30;;;14.15;;
77042;SDS011;65975;53.936;27.540;2023-01-28T05:50:52;31.90;;;14.68;;
77042;SDS011;65975;53.936;27.540;2023-01-28T05:53:18;31.85;;;13.80;;
77042;SDS011;65975;53.936;27.540;2023-01-28T05:55:47;33.85;;;13.75;;
77042;SDS011;65975;53.936;27.540;2023-01-28T05:58:14;32.10;;;15.27;;
77042;SDS011;65975;53.936;27.540;2023-01-28T06:00:39;30.52;;;14.13;;
77042;SDS011;65975;53.936;27.540;2023-01-28T06:03:05;36.65;;;14.27;;
77042;SDS011;65975;53.936;27.540;2023-01-28T06:05:30;32.65;;;14.10;;
77042;SDS011;65975;53.936;27.540;2023-01-28T06:07:56;29.80;;;12.65;;
77042;SDS011;65975;53.936;27.540;2023-01-28T06:10:21;35.00;;;15.13;;
77042;SDS011;65975;53.936;27.540;2023-01-28T06:12:47;31.88;;;14.77;;
77042;SDS011;65975;53.936;27.540;2023-01-28T06:15:12;29.13;;;14.32;;
77042;SDS011;65975;53.936;27.540;2023-01-28T06:17:38;35.75;;;15.35;;
77042;SDS011;65975;53.936;27.540;2023-01-28T06:20:03;31.33;;;13.90;;
77042;SDS011;65975;53.936;27.540;2023-01-28T06:22:29;29.73;;;12.93;;
77042;SDS011;65975;53.936;27.540;2023-01-28T06:24:54;33.83;;;14.90;;
77042;SDS011;65975;53.936;27.540;2023-01-28T06:27:20;30.48;;;13.95;;
77042;SDS011;65975;53.936;27.540;2023-01-28T06:29:45;30.90;;;14.45;;
77042;SDS011;65975;53.936;27.540;2023-01-28T06:32:11;35.75;;;14.80;;
77042;SDS011;65975;53.936;27.540;2023-01-28T06:34:36;39.42;;;16.00;;
77042;SDS011;65975;53.936;27.540;2023-01-28T06:37:02;41.38;;;14.85;;
77042;SDS011;65975;53.936;27.540;2023-01-28T06:39:28;42.80;;;15.82;;
77042;SDS011;65975;53.936;27.540;2023-01-28T06:41:56;39.30;;;16.77;;
77042;SDS011;65975;53.936;27.540;2023-01-28T06:44:21;31.20;;;13.65;;
77042;SDS011;65975;53.936;27.540;2023-01-28T06:46:47;33.53;;;15.88;;
77042;SDS011;65975;53.936;27.540;2023-01-28T06:49:13;42.63;;;19.10;;
77042;SDS011;65975;53.936;27.540;2023-01-28T06:51:38;38.28;;;16.02;;
77042;SDS011;65975;53.936;27.540;2023-01-28T06:54:04;39.50;;;17.10;;
77042;SDS011;65975;53.936;27.540;2023-01-28T06:56:30;42.58;;;17.77;;
77042;SDS011;65975;53.936;27.540;2023-01-28T06:58:55;43.67;;;16.88;;
77042;SDS011;65975;53.936;27.540;2023-01-28T07:01:21;37.10;;;16.98;;
77042;SDS011;65975;53.936;27.540;2023-01-28T07:03:46;32.05;;;15.18;;
77042;SDS011;65975;53.936;27.540;2023-01-28T07:06:12;39.08;;;16.02;;
77042;SDS011;65975;53.936;27.540;2023-01-28T07:08:37;37.25;;;15.85;;
77042;SDS011;65975;53.936;27.540;2023-01-28T07:11:04;37.80;;;18.83;;
77042;SDS011;65975;53.936;27.540;2023-01-28T07:13:29;40.22;;;19.40;;
77042;SDS011;65975;53.936;27.540;2023-01-28T07:15:55;42.00;;;20.00;;
77042;SDS011;65975;53.936;27.540;2023-01-28T07:18:21;45.63;;;19.75;;
77042;SDS011;65975;53.936;27.540;2023-01-28T07:20:46;44.25;;;18.02;;
77042;SDS011;65975;53.936;27.540;2023-01-28T07:23:12;42.83;;;17.15;;
77042;SDS011;65975;53.936;27.540;2023-01-28T07:25:38;38.15;;;17.05;;
77042;SDS011;65975;53.936;27.540;2023-01-28T07:28:03;34.20;;;14.60;;
77042;SDS011;65975;53.936;27.540;2023-01-28T07:30:29;28.60;;;14.25;;
77042;SDS011;65975;53.936;27.540;2023-01-28T07:32:55;40.03;;;18.35;;
77042;SDS011;65975;53.936;27.540;2023-01-28T07:35:22;47.25;;;22.55;;
77042;SDS011;65975;53.936;27.540;2023-01-28T07:37:52;38.72;;;16.55;;
77042;SDS011;65975;53.936;27.540;2023-01-28T07:40:19;49.05;;;21.52;;
77042;SDS011;65975;53.936;27.540;2023-01-28T07:42:45;46.78;;;23.20;;
77042;SDS011;65975;53.936;27.540;2023-01-28T07:45:11;69.43;;;32.22;;
77042;SDS011;65975;53.936;27.540;2023-01-28T07:47:36;42.22;;;19.58;;
77042;SDS011;65975;53.936;27.540;2023-01-28T07:50:02;35.75;;;15.35;;
77042;SDS011;65975;53.936;27.540;2023-01-28T07:52:27;32.35;;;14.52;;
77042;SDS011;65975;53.936;27.540;2023-01-28T07:54:53;34.63;;;14.05;;
77042;SDS011;65975;53.936;27.540;2023-01-28T07:57:18;40.63;;;16.08;;
77042;SDS011;65975;53.936;27.540;2023-01-28T07:59:48;34.10;;;17.08;;
77042;SDS011;65975;53.936;27.540;2023-01-28T08:02:15;41.20;;;17.83;;
77042;SDS011;65975;53.936;27.540;2023-01-28T08:04:40;34.00;;;16.42;;
77042;SDS011;65975;53.936;27.540;2023-01-28T08:07:06;40.58;;;17.27;;
77042;SDS011;65975;53.936;27.540;2023-01-28T08:09:31;46.00;;;19.17;;
77042;SDS011;65975;53.936;27.540;2023-01-28T08:11:58;42.45;;;19.60;;
77042;SDS011;65975;53.936;27.540;2023-01-28T08:14:26;38.70;;;16.98;;
77042;SDS011;65975;53.936;27.540;2023-01-28T08:16:52;39.33;;;19.75;;
77042;SDS011;65975;53.936;27.540;2023-01-28T08:19:17;47.78;;;23.77;;
77042;SDS011;65975;53.936;27.540;2023-01-28T08:21:42;42.50;;;18.10;;
77042;SDS011;65975;53.936;27.540;2023-01-28T08:24:08;39.38;;;17.00;;
77042;SDS011;65975;53.936;27.540;2023-01-28T08:26:35;40.10;;;18.02;;
77042;SDS011;65975;53.936;27.540;2023-01-28T08:29:00;45.13;;;20.55;;
77042;SDS011;65975;53.936;27.540;2023-01-28T08:31:26;73.82;;;30.25;;
77042;SDS011;65975;53.936;27.540;2023-01-28T08:33:53;76.40;;;36.63;;
77042;SDS011;65975;53.936;27.540;2023-01-28T08:36:18;99.70;;;48.65;;
77042;SDS011;65975;53.936;27.540;2023-01-28T08:38:45;58.97;;;29.55;;
77042;SDS011;65975;53.936;27.540;2023-01-28T08:41:10;50.10;;;26.23;;
77042;SDS011;65975;53.936;27.540;2023-01-28T08:43:36;54.25;;;22.60;;
77042;SDS011;65975;53.936;27.540;2023-01-28T08:46:03;48.38;;;20.60;;
77042;SDS011;65975;53.936;27.540;2023-01-28T08:48:31;45.55;;;22.05;;
77042;SDS011;65975;53.936;27.540;2023-01-28T08:50:57;45.78;;;21.52;;
77042;SDS011;65975;53.936;27.540;2023-01-28T08:53:24;39.40;;;18.98;;
77042;SDS011;65975;53.936;27.540;2023-01-28T08:55:49;44.70;;;21.65;;
77042;SDS011;65975;53.936;27.540;2023-01-28T08:58:15;42.15;;;18.70;;
77042;SDS011;65975;53.936;27.540;2023-01-28T09:00:43;35.22;;;17.98;;
77042;SDS011;65975;53.936;27.540;2023-01-28T09:03:09;43.50;;;19.60;;
77042;SDS011;65975;53.936;27.540;2023-01-28T09:05:35;38.47;;;18.70;;
77042;SDS011;65975;53.936;27.540;2023-01-28T09:08:06;39.17;;;18.63;;
77042;SDS011;65975;53.936;27.540;2023-01-28T09:10:36;35.13;;;16.38;;
77042;SDS011;65975;53.936;27.540;2023-01-28T09:13:06;38.80;;;19.13;;
77042;SDS011;65975;53.936;27.540;2023-01-28T09:15:33;36.47;;;18.52;;
77042;SDS011;65975;53.936;27.540;2023-01-28T09:17:59;38.67;;;18.40;;
77042;SDS011;65975;53.936;27.540;2023-01-28T09:20:25;41.20;;;17.83;;
77042;SDS011;65975;53.936;27.540;2023-01-28T09:22:51;37.55;;;16.38;;
77042;SDS011;65975;53.936;27.540;2023-01-28T09:25:17;27.48;;;14.93;;
77042;SDS011;65975;53.936;27.540;2023-01-28T09:27:42;26.90;;;12.75;;
77042;SDS011;65975;53.936;27.540;2023-01-28T09:30:08;26.23;;;13.10;;
77042;SDS011;65975;53.936;27.540;2023-01-28T09:32:34;37.95;;;17.90;;
77042;SDS011;65975;53.936;27.540;2023-01-28T09:35:00;47.03;;;22.70;;
77042;SDS011;65975;53.936;27.540;2023-01-28T09:37:26;48.38;;;26.70;;
77042;SDS011;65975;53.936;27.540;2023-01-28T09:39:51;36.75;;;19.17;;
77042;SDS011;65975;53.936;27.540;2023-01-28T09:42:24;30.80;;;17.17;;
77042;SDS011;65975;53.936;27.540;2023-01-28T09:47:55;30.48;;;15.27;;
77042;SDS011;65975;53.936;27.540;2023-01-28T09:50:25;99.28;;;48.88;;
77042;SDS011;65975;53.936;27.540;2023-01-28T09:52:58;148.45;;;75.70;;
77042;SDS011;65975;53.936;27.540;2023-01-28T09:57:59;43.90;;;23.88;;
77042;SDS011;65975;53.936;27.540;2023-01-28T10:00:28;55.30;;;34.03;;
77042;SDS011;65975;53.936;27.540;2023-01-28T10:04:04;44.38;;;25.85;;
77042;SDS011;65975;53.936;27.540;2023-01-28T10:06:03;35.05;;;19.35;;
77042;SDS011;65975;53.936;27.540;2023-01-28T10:09:40;37.47;;;21.27;;
77042;SDS011;65975;53.936;27.540;2023-01-28T10:19:34;32.90;;;16.73;;
77042;SDS011;65975;53.936;27.540;2023-01-28T10:22:08;30.55;;;16.38;;
77042;SDS011;65975;53.936;27.540;2023-01-28T10:24:46;48.90;;;25.63;;
77042;SDS011;65975;53.936;27.540;2023-01-28T10:27:20;23.50;;;13.38;;
77042;SDS011;65975;53.936;27.540;2023-01-28T10:29:49;35.33;;;18.13;;
77042;SDS011;65975;53.936;27.540;2023-01-28T10:32:22;22.55;;;12.35;;
77042;SDS011;65975;53.936;27.540;2023-01-28T10:34:53;27.25;;;12.70;;
77042;SDS011;65975;53.936;27.540;2023-01-28T10:37:28;26.60;;;12.63;;
77042;SDS011;65975;53.936;27.540;2023-01-28T10:39:57;27.20;;;12.70;;
77042;SDS011;65975;53.936;27.540;2023-01-28T10:42:34;25.77;;;12.20;;
77042;SDS011;65975;53.936;27.540;2023-01-28T10:45:06;24.35;;;12.88;;
77042;SDS011;65975;53.936;27.540;2023-01-28T10:47:43;27.02;;;13.38;;
77042;SDS011;65975;53.936;27.540;2023-01-28T10:50:22;27.08;;;12.60;;
77042;SDS011;65975;53.936;27.540;2023-01-28T10:52:56;25.90;;;12.18;;
77042;SDS011;65975;53.936;27.540;2023-01-28T10:55:30;26.60;;;12.32;;
77042;SDS011;65975;53.936;27.540;2023-01-28T10:58:20;25.63;;;12.13;;
77042;SDS011;65975;53.936;27.540;2023-01-28T11:01:07;31.10;;;15.80;;
77042;SDS011;65975;53.936;27.540;2023-01-28T11:03:32;33.40;;;16.38;;
77042;SDS011;65975;53.936;27.540;2023-01-28T11:06:01;37.60;;;18.25;;
77042;SDS011;65975;53.936;27.540;2023-01-28T11:08:28;29.77;;;15.57;;
77042;SDS011;65975;53.936;27.540;2023-01-28T11:10:55;29.65;;;15.90;;
77042;SDS011;65975;53.936;27.540;2023-01-28T11:13:25;29.27;;;12.50;;
77042;SDS011;65975;53.936;27.540;2023-01-28T11:20:59;36.92;;;19.55;;
77042;SDS011;65975;53.936;27.540;2023-01-28T11:23:28;29.20;;;15.63;;
77042;SDS011;65975;53.936;27.540;2023-01-28T11:26:01;48.47;;;25.08;;
77042;SDS011;65975;53.936;27.540;2023-01-28T11:28:43;36.13;;;20.55;;
77042;SDS011;65975;53.936;27.540;2023-01-28T11:31:09;60.15;;;36.88;;
77042;SDS011;65975;53.936;27.540;2023-01-28T11:33:42;80.13;;;42.08;;
77042;SDS011;65975;53.936;27.540;2023-01-28T11:41:27;29.90;;;17.13;;
77042;SDS011;65975;53.936;27.540;2023-01-28T11:43:55;25.00;;;12.90;;
77042;SDS011;65975;53.936;27.540;2023-01-28T11:49:22;35.85;;;18.80;;
77042;SDS011;65975;53.936;27.540;2023-01-28T11:52:09;30.70;;;16.40;;
77042;SDS011;65975;53.936;27.540;2023-01-28T11:55:16;28.27;;;14.30;;
77042;SDS011;65975;53.936;27.540;2023-01-28T11:58:11;30.63;;;14.68;;
77042;SDS011;65975;53.936;27.540;2023-01-28T12:01:13;26.95;;;14.48;;
77042;SDS011;65975;53.936;27.540;2023-01-28T12:09:53;31.33;;;15.60;;
77042;SDS011;65975;53.936;27.540;2023-01-28T12:25:59;32.70;;;16.17;;
77042;SDS011;65975;53.936;27.540;2023-01-28T12:31:36;29.60;;;17.10;;
77042;SDS011;65975;53.936;27.540;2023-01-28T12:47:44;57.63;;;32.35;;
77042;SDS011;65975;53.936;27.540;2023-01-28T12:50:17;66.17;;;37.10;;
77042;SDS011;65975;53.936;27.540;2023-01-28T12:52:57;47.72;;;27.25;;
77042;SDS011;65975;53.936;27.540;2023-01-28T12:56:02;40.58;;;21.83;;
77042;SDS011;65975;53.936;27.540;2023-01-28T12:58:29;27.55;;;13.68;;
77042;SDS011;65975;53.936;27.540;2023-01-28T13:01:18;24.52;;;13.05;;
77042;SDS011;65975;53.936;27.540;2023-01-28T13:06:30;30.50;;;14.10;;
77042;SDS011;65975;53.936;27.540;2023-01-28T13:09:09;27.08;;;13.02;;
77042;SDS011;65975;53.936;27.540;2023-01-28T13:14:13;31.92;;;15.00;;
77042;SDS011;65975;53.936;27.540;2023-01-28T13:16:39;36.13;;;16.00;;
77042;SDS011;65975;53.936;27.540;2023-01-28T13:21:42;31.48;;;14.63;;
77042;SDS011;65975;53.936;27.540;2023-01-28T13:31:41;27.60;;;13.60;;
77042;SDS011;65975;53.936;27.540;2023-01-28T13:34:27;32.00;;;16.23;;
77042;SDS011;65975;53.936;27.540;2023-01-28T13:37:46;30.75;;;15.20;;
77042;SDS011;65975;53.936;27.540;2023-01-28T13:42:38;30.70;;;13.93;;
77042;SDS011;65975;53.936;27.540;2023-01-28T13:47:46;34.78;;;15.55;;
77042;SDS011;65975;53.936;27.540;2023-01-28T13:50:29;44.60;;;20.35;;
77042;SDS011;65975;53.936;27.540;2023-01-28T13:53:03;33.58;;;16.50;;
77042;SDS011;65975;53.936;27.540;2023-01-28T13:55:41;36.42;;;14.75;;
77042;SDS011;65975;53.936;27.540;2023-01-28T14:14:33;32.53;;;16.45;;
77042;SDS011;65975;53.936;27.540;2023-01-28T14:19:53;40.67;;;17.05;;
77042;SDS011;65975;53.936;27.540;2023-01-28T14:22:21;29.17;;;15.48;;
77042;SDS011;65975;53.936;27.540;2023-01-28T14:24:47;38.47;;;16.75;;
77042;SDS011;65975;53.936;27.540;2023-01-28T14:27:16;38.63;;;17.63;;
77042;SDS011;65975;53.936;27.540;2023-01-28T14:32:30;38.72;;;16.65;;
77042;SDS011;65975;53.936;27.540;2023-01-28T14:35:07;35.83;;;16.23;;
77042;SDS011;65975;53.936;27.540;2023-01-28T14:37:33;37.40;;;17.73;;
77042;SDS011;65975;53.936;27.540;2023-01-28T14:40:00;37.75;;;17.33;;
77042;SDS011;65975;53.936;27.540;2023-01-28T14:42:29;38.30;;;17.25;;
77042;SDS011;65975;53.936;27.540;2023-01-28T14:45:04;35.72;;;15.68;;
77042;SDS011;65975;53.936;27.540;2023-01-28T14:50:24;30.70;;;14.60;;
77042;SDS011;65975;53.936;27.540;2023-01-28T14:58:22;37.30;;;16.02;;
77042;SDS011;65975;53.936;27.540;2023-01-28T15:00:55;36.80;;;16.83;;
77042;SDS011;65975;53.936;27.540;2023-01-28T15:03:23;39.47;;;17.48;;
77042;SDS011;65975;53.936;27.540;2023-01-28T15:06:10;35.55;;;16.13;;
77042;SDS011;65975;53.936;27.540;2023-01-28T15:08:38;31.63;;;15.10;;
77042;SDS011;65975;53.936;27.540;2023-01-28T15:11:05;31.38;;;14.45;;
77042;SDS011;65975;53.936;27.540;2023-01-28T15:13:36;38.80;;;18.08;;
77042;SDS011;65975;53.936;27.540;2023-01-28T15:16:05;34.72;;;16.40;;
77042;SDS011;65975;53.936;27.540;2023-01-28T15:18:36;32.50;;;15.48;;
77042;SDS011;65975;53.936;27.540;2023-01-28T15:23:33;36.35;;;16.88;;
77042;SDS011;65975;53.936;27.540;2023-01-28T15:26:08;40.25;;;18.98;;
77042;SDS011;65975;53.936;27.540;2023-01-28T15:28:48;36.33;;;17.05;;
77042;SDS011;65975;53.936;27.540;2023-01-28T15:31:18;33.17;;;16.33;;
77042;SDS011;65975;53.936;27.540;2023-01-28T15:34:01;34.17;;;17.30;;
77042;SDS011;65975;53.936;27.540;2023-01-28T15:36:29;34.10;;;16.67;;
77042;SDS011;65975;53.936;27.540;2023-01-28T15:38:56;33.38;;;16.10;;
77042;SDS011;65975;53.936;27.540;2023-01-28T15:41:23;36.70;;;18.38;;
77042;SDS011;65975;53.936;27.540;2023-01-28T15:43:56;35.47;;;17.02;;
77042;SDS011;65975;53.936;27.540;2023-01-28T15:46:22;35.53;;;16.63;;
77042;SDS011;65975;53.936;27.540;2023-01-28T15:48:48;31.27;;;13.70;;
77042;SDS011;65975;53.936;27.540;2023-01-28T15:51:22;38.63;;;17.23;;
77042;SDS011;65975;53.936;27.540;2023-01-28T15:53:52;31.17;;;14.63;;
77042;SDS011;65975;53.936;27.540;2023-01-28T15:56:25;34.95;;;16.20;;
77042;SDS011;65975;53.936;27.540;2023-01-28T15:58:52;39.47;;;17.25;;
77042;SDS011;65975;53.936;27.540;2023-01-28T16:01:20;37.40;;;17.48;;
77042;SDS011;65975;53.936;27.540;2023-01-28T16:03:58;42.08;;;19.05;;
77042;SDS011;65975;53.936;27.540;2023-01-28T16:06:30;41.35;;;18.20;;
77042;SDS011;65975;53.936;27.540;2023-01-28T16:09:03;45.75;;;22.88;;
77042;SDS011;65975;53.936;27.540;2023-01-28T16:11:32;68.50;;;34.25;;
77042;SDS011;65975;53.936;27.540;2023-01-28T16:14:02;85.68;;;45.00;;
77042;SDS011;65975;53.936;27.540;2023-01-28T16:16:32;98.65;;;55.85;;
77042;SDS011;65975;53.936;27.540;2023-01-28T16:19:00;71.20;;;37.67;;
77042;SDS011;65975;53.936;27.540;2023-01-28T16:21:35;53.67;;;29.52;;
77042;SDS011;65975;53.936;27.540;2023-01-28T16:24:27;56.22;;;26.67;;
77042;SDS011;65975;53.936;27.540;2023-01-28T16:27:00;51.53;;;26.42;;
77042;SDS011;65975;53.936;27.540;2023-01-28T16:29:27;42.65;;;22.92;;
77042;SDS011;65975;53.936;27.540;2023-01-28T16:31:54;44.53;;;23.30;;
77042;SDS011;65975;53.936;27.540;2023-01-28T16:34:21;37.63;;;20.77;;
77042;SDS011;65975;53.936;27.540;2023-01-28T16:36:47;42.80;;;20.85;;
77042;SDS011;65975;53.936;27.540;2023-01-28T16:39:12;46.38;;;23.10;;
77042;SDS011;65975;53.936;27.540;2023-01-28T16:41:39;46.78;;;22.48;;
77042;SDS011;65975;53.936;27.540;2023-01-28T16:44:10;53.20;;;25.60;;